Terminal Aerodrome Forecast
Issued by NWS Central Illinois

Home | Current Version | Previous Version | Text Only | Print | Product List | Glossary On
Versions: 1 2 3 4 5 6 7 8 9 10 11 12 13 14 15 16 17
586
FTUS43 KILX 230520
TAFSPI
TAF
KSPI 230520Z 2306/2406 12008KT P6SM BKN120
     FM231500 14011KT P6SM VCSH BKN045
     FM231900 15011G17KT P6SM BKN040
     FM240200 16013G19KT P6SM BKN250 WS020/19055KT=

USA.gov is the U.S. government's official web portal to all federal, state and local government web resources and services.